Time;durP1;ratioP1;P1;durP2;ratioP2;P2;SDS_P1;SDS_P2;PMS_P1;PMS_P2;Temp;Humidity;BMP_temperature;BMP_pressure;BME280_temperature;BME280_humidity;BME280_pressure;Samples;Min_cycle;Max_cycle;Signal;HPM_P1;HPM_P2
2023/07/17 00:00:57;;;;;;;8.75;4.05;;;15.10;99.90;;;;;;5037043;28;20484;-56
2023/07/17 00:03:25;;;;;;;;;;;15.10;99.90;;;;;;5031741;28;20029;-60
2023/07/17 00:05:52;;;;;;;8.05;4.30;;;15.00;99.90;;;;;;5036950;28;19928;-51
2023/07/17 00:08:19;;;;;;;7.40;3.75;;;15.10;99.90;;;;;;5009463;28;20040;-60
2023/07/17 00:10:44;;;;;;;;;;;15.00;99.90;;;;;;5014896;28;20051;-56
2023/07/17 00:13:10;;;;;;;9.95;3.63;;;15.00;99.90;;;;;;5021901;28;19921;-55
2023/07/17 00:15:35;;;;;;;6.22;3.17;;;15.00;99.90;;;;;;5011776;28;20697;-55
2023/07/17 00:18:01;;;;;;;10.23;3.88;;;15.00;99.90;;;;;;5014610;28;20073;-57
2023/07/17 00:20:27;;;;;;;;;;;15.00;99.90;;;;;;5011318;28;20105;-54
2023/07/17 00:22:53;;;;;;;8.30;3.40;;;15.00;99.90;;;;;;5011999;28;20241;-52
2023/07/17 00:25:19;;;;;;;9.55;3.90;;;14.90;99.90;;;;;;5015520;28;20497;-58
2023/07/17 00:27:45;;;;;;;10.02;4.13;;;14.90;99.90;;;;;;5015783;28;20045;-55
2023/07/17 00:30:12;;;;;;;;;;;14.90;99.90;;;;;;5021051;28;20176;-58
2023/07/17 00:32:38;;;;;;;7.13;3.75;;;14.80;99.90;;;;;;5019234;28;20030;-58
2023/07/17 00:35:04;;;;;;;6.13;3.28;;;14.80;99.90;;;;;;5012153;28;20749;-56
2023/07/17 00:37:29;;;;;;;8.90;3.90;;;14.80;99.90;;;;;;5014480;28;20049;-58
2023/07/17 00:39:55;;;;;;;;;;;14.80;99.90;;;;;;5008076;28;20431;-55
2023/07/17 00:42:21;;;;;;;8.55;3.45;;;14.80;99.90;;;;;;5009614;28;19922;-57
2023/07/17 00:44:46;;;;;;;;;;;14.70;99.90;;;;;;5011600;28;20046;-57
2023/07/17 00:47:12;;;;;;;10.98;3.75;;;14.70;99.90;;;;;;5018780;28;19920;-57
2023/07/17 00:49:38;;;;;;;7.88;3.80;;;14.70;99.90;;;;;;5011629;28;20119;-56
2023/07/17 00:52:05;;;;;;;7.75;3.47;;;14.70;99.90;;;;;;5010281;28;20114;-52
2023/07/17 00:54:32;;;;;;;10.75;4.00;;;14.60;99.90;;;;;;5016498;28;20033;-55
2023/07/17 00:56:59;;;;;;;6.82;3.55;;;14.50;99.90;;;;;;5018848;28;20693;-60
2023/07/17 00:59:26;;;;;;;6.25;3.80;;;14.60;99.90;;;;;;5019819;28;20056;-54
2023/07/17 01:01:53;;;;;;;7.50;3.67;;;14.60;99.90;;;;;;5012828;28;20124;-56
2023/07/17 01:04:18;;;;;;;12.20;3.78;;;14.50;99.90;;;;;;5016070;28;20046;-53
2023/07/17 01:06:44;;;;;;;;;;;14.50;99.90;;;;;;5015262;28;20034;-58
2023/07/17 01:09:11;;;;;;;7.53;3.50;;;14.50;99.90;;;;;;5019761;28;19921;-55
2023/07/17 01:11:37;;;;;;;5.97;3.83;;;14.50;99.90;;;;;;5018615;28;20049;-56
2023/07/17 01:14:02;;;;;;;;;;;14.40;99.90;;;;;;5010030;28;20418;-58
2023/07/17 01:16:28;;;;;;;10.80;3.38;;;14.40;99.90;;;;;;5007532;28;20191;-53
2023/07/17 01:18:54;;;;;;;;;;;14.40;99.90;;;;;;5018257;28;20048;-59
2023/07/17 01:21:25;;;;;;;8.00;3.45;;;14.40;99.90;;;;;;5017427;28;19974;-61
2023/07/17 01:23:52;;;;;;;7.97;3.33;;;14.40;99.90;;;;;;5018073;28;20182;-50
2023/07/17 01:26:18;;;;;;;7.25;3.97;;;14.40;99.90;;;;;;5015984;28;20494;-56
2023/07/17 01:28:45;;;;;;;7.28;3.58;;;14.50;99.90;;;;;;5016026;28;20037;-57
2023/07/17 01:31:12;;;;;;;6.97;3.30;;;14.50;99.90;;;;;;5016998;28;20040;-56
2023/07/17 01:33:38;;;;;;;10.60;3.92;;;14.50;99.90;;;;;;5017421;28;20073;-54
2023/07/17 01:36:04;;;;;;;;;;;14.50;99.90;;;;;;5016543;28;20045;-60
2023/07/17 01:38:30;;;;;;;7.27;3.27;;;14.60;99.90;;;;;;5011744;28;19921;-52
2023/07/17 01:40:56;;;;;;;7.20;3.00;;;14.60;99.90;;;;;;5018518;28;20051;-55
2023/07/17 01:43:21;;;;;;;;;;;14.60;99.90;;;;;;5015136;28;20041;-56
2023/07/17 01:45:47;;;;;;;8.30;3.45;;;14.60;99.90;;;;;;5007092;28;20464;-57
2023/07/17 01:48:14;;;;;;;;;;;14.70;99.90;;;;;;5013880;28;20044;-58
2023/07/17 01:50:41;;;;;;;8.05;3.45;;;14.70;99.90;;;;;;5016775;28;20334;-59
2023/07/17 01:53:07;;;;;;;6.03;2.90;;;14.70;99.90;;;;;;5020910;28;20053;-58
2023/07/17 01:55:32;;;;;;;;;;;14.70;99.90;;;;;;5007751;28;20056;-57
2023/07/17 01:57:58;;;;;;;6.10;3.00;;;14.70;99.90;;;;;;5009371;28;19961;-59
2023/07/17 02:00:24;;;;;;;8.90;3.85;;;14.70;99.90;;;;;;5013985;28;20414;-58
2023/07/17 02:02:50;;;;;;;;;;;14.70;99.90;;;;;;5018862;28;20045;-60
2023/07/17 02:05:16;;;;;;;6.53;3.55;;;14.70;99.90;;;;;;5004950;28;19920;-51
2023/07/17 02:07:42;;;;;;;5.93;3.47;;;14.70;99.90;;;;;;5017475;28;20041;-60
2023/07/17 02:10:07;;;;;;;;;;;14.70;99.90;;;;;;5020917;28;20041;-54
2023/07/17 02:12:33;;;;;;;7.05;3.78;;;14.60;99.90;;;;;;5012274;28;19921;-49
2023/07/17 02:14:59;;;;;;;;;;;14.60;99.90;;;;;;5018218;28;20084;-57
2023/07/17 02:17:25;;;;;;;7.32;3.25;;;14.60;99.90;;;;;;5014059;28;19924;-53
2023/07/17 02:19:50;;;;;;;;;;;14.60;99.90;;;;;;5013307;28;20568;-59
2023/07/17 02:22:16;;;;;;;7.63;3.85;;;14.50;99.90;;;;;;5016599;28;19921;-58
2023/07/17 02:24:41;;;;;;;;;;;14.50;99.90;;;;;;5014469;28;20039;-59
2023/07/17 02:27:07;;;;;;;9.30;3.67;;;14.50;99.90;;;;;;5009412;28;19931;-57
2023/07/17 02:29:32;;;;;;;;;;;14.50;99.90;;;;;;5022019;28;20045;-57
2023/07/17 02:31:58;;;;;;;10.63;3.70;;;14.40;99.90;;;;;;5015584;28;19961;-53
2023/07/17 02:34:24;;;;;;;;;;;14.30;99.90;;;;;;5011699;28;20461;-55
2023/07/17 02:36:49;;;;;;;7.97;3.53;;;14.40;99.90;;;;;;5017533;28;19924;-56
2023/07/17 02:39:15;;;;;;;;;;;14.30;99.90;;;;;;5017114;28;20041;-57
2023/07/17 02:41:40;;;;;;;9.60;3.80;;;14.30;99.90;;;;;;5011460;28;19921;-55
2023/07/17 02:44:06;;;;;;;;;;;14.40;99.90;;;;;;5017559;28;20786;-56
2023/07/17 02:46:32;;;;;;;9.65;3.88;;;14.40;99.90;;;;;;5016793;28;20680;-58
2023/07/17 02:48:57;;;;;;;;;;;14.50;99.90;;;;;;5011433;28;20457;-54
2023/07/17 02:51:23;;;;;;;11.18;3.97;;;14.50;99.90;;;;;;5014374;28;19916;-58
2023/07/17 02:53:48;;;;;;;;;;;14.60;99.90;;;;;;5016705;28;20038;-57
2023/07/17 02:56:14;;;;;;;11.55;3.97;;;14.60;99.90;;;;;;5014662;28;19983;-56
2023/07/17 02:58:41;;;;;;;;;;;14.60;99.90;;;;;;5013347;28;20045;-59
2023/07/17 03:01:07;;;;;;;8.93;3.53;;;14.60;99.90;;;;;;5014764;28;19917;-58
2023/07/17 03:03:32;;;;;;;;;;;14.70;99.90;;;;;;5019957;28;20052;-55
2023/07/17 03:05:58;;;;;;;9.43;3.90;;;14.70;99.90;;;;;;5017017;28;19935;-56
2023/07/17 03:08:23;;;;;;;;;;;14.80;99.90;;;;;;5016320;28;20046;-57
2023/07/17 03:10:49;;;;;;;13.98;4.00;;;14.80;99.90;;;;;;5021621;28;20801;-58
2023/07/17 03:13:14;;;;;;;;;;;14.90;99.90;;;;;;5019001;28;20083;-58
2023/07/17 03:15:41;;;;;;;12.20;4.15;;;14.90;99.90;;;;;;5006030;28;19982;-56
2023/07/17 03:18:08;;;;;;;10.15;4.18;;;14.90;99.90;;;;;;5017009;28;20045;-55
2023/07/17 03:20:34;;;;;;;;;;;14.90;99.90;;;;;;5017133;28;20042;-57
2023/07/17 03:23:00;;;;;;;12.07;3.85;;;14.90;99.90;;;;;;4985642;28;20135;-53
2023/07/17 03:25:25;;;;;;;;;;;15.00;99.90;;;;;;5004193;28;20504;-59
2023/07/17 03:27:51;;;;;;;12.10;4.28;;;15.00;99.90;;;;;;5003738;28;19925;-57
2023/07/17 03:30:17;;;;;;;14.38;4.45;;;15.10;99.90;;;;;;5001830;28;20394;-60
2023/07/17 03:32:42;;;;;;;9.48;4.07;;;15.00;99.90;;;;;;5003255;28;20049;-54
2023/07/17 03:35:08;;;;;;;8.40;3.83;;;15.00;99.90;;;;;;5005040;28;21049;-49
2023/07/17 03:37:34;;;;;;;;;;;15.10;99.90;;;;;;5006872;28;20042;-50
2023/07/17 03:39:59;;;;;;;8.68;3.78;;;15.10;99.90;;;;;;5008075;28;19963;-56
2023/07/17 03:42:25;;;;;;;;;;;15.10;99.90;;;;;;5010570;28;20049;-58
2023/07/17 03:44:51;;;;;;;8.75;4.00;;;15.10;99.90;;;;;;5005647;28;19921;-54
2023/07/17 03:47:16;;;;;;;;;;;15.10;99.90;;;;;;5005212;28;20045;-59
2023/07/17 03:49:42;;;;;;;9.05;4.07;;;15.10;99.90;;;;;;5007476;28;19917;-55
2023/07/17 03:52:07;;;;;;;;;;;15.10;99.90;;;;;;5010418;28;20104;-52
2023/07/17 03:54:33;;;;;;;9.98;4.22;;;15.10;99.90;;;;;;5012260;28;19964;-54
2023/07/17 03:56:58;;;;;;;;;;;15.00;99.90;;;;;;5018555;28;20076;-51
2023/07/17 03:59:24;;;;;;;10.43;3.60;;;15.00;99.90;;;;;;5018515;28;19925;-54
2023/07/17 04:01:50;;;;;;;;;;;15.10;99.90;;;;;;5019609;28;20561;-55
2023/07/17 04:04:16;;;;;;;6.57;3.63;;;15.10;99.90;;;;;;5007272;28;20651;-55
2023/07/17 04:06:41;;;;;;;;;;;15.10;99.90;;;;;;5020149;28;20042;-53
2023/07/17 04:09:07;;;;;;;7.50;3.60;;;15.10;99.90;;;;;;5018721;28;20004;-57
2023/07/17 04:11:33;;;;;;;;;;;15.10;99.90;;;;;;5018293;28;20033;-49
2023/07/17 04:13:59;;;;;;;9.18;3.78;;;15.10;99.90;;;;;;5015537;28;19924;-52
2023/07/17 04:16:26;;;;;;;7.95;4.15;;;15.20;99.90;;;;;;5015780;28;20132;-53
2023/07/17 04:18:52;;;;;;;14.20;4.55;;;15.20;99.90;;;;;;5017464;28;20056;-60
2023/07/17 04:21:18;;;;;;;6.63;3.50;;;15.20;99.90;;;;;;5009186;28;20037;-58
2023/07/17 04:23:48;;;;;;;11.35;4.03;;;15.20;99.90;;;;;;5013873;28;20880;-59
2023/07/17 04:26:14;;;;;;;8.68;4.10;;;15.20;99.90;;;;;;5012057;28;20084;-59
2023/07/17 04:28:40;;;;;;;;;;;15.20;99.90;;;;;;5016639;28;20382;-58
2023/07/17 04:31:06;;;;;;;14.93;4.13;;;15.40;99.90;;;;;;5022590;28;19923;-57
2023/07/17 04:33:32;;;;;;;;;;;15.60;99.90;;;;;;5013863;28;20492;-56
2023/07/17 04:35:58;;;;;;;9.90;3.55;;;15.70;99.90;;;;;;5018815;28;20007;-55
2023/07/17 04:38:24;;;;;;;;;;;15.80;99.90;;;;;;5017744;28;20087;-58
2023/07/17 04:40:49;;;;;;;7.60;3.65;;;16.00;99.90;;;;;;5018942;28;19932;-51
2023/07/17 04:43:15;;;;;;;;;;;16.00;99.90;;;;;;5019868;28;20057;-56
2023/07/17 04:45:42;;;;;;;7.03;3.45;;;16.00;99.90;;;;;;5019843;28;19921;-53
2023/07/17 04:48:07;;;;;;;6.88;3.28;;;16.00;99.90;;;;;;5022389;28;20548;-55
2023/07/17 04:50:33;;;;;;;;;;;16.00;99.90;;;;;;5021517;28;20037;-53
2023/07/17 04:52:58;;;;;;;5.97;3.25;;;16.10;99.90;;;;;;5011582;28;20353;-50
2023/07/17 04:55:24;;;;;;;;;;;16.10;99.90;;;;;;5022051;28;20033;-55
2023/07/17 04:57:50;;;;;;;7.72;3.10;;;16.20;99.90;;;;;;5016367;28;19943;-52
2023/07/17 05:00:16;;;;;;;9.65;3.67;;;16.20;99.90;;;;;;5021008;28;20556;-55
2023/07/17 05:02:42;;;;;;;6.38;2.85;;;16.30;99.90;;;;;;5022428;28;20083;-52
2023/07/17 05:05:08;;;;;;;7.65;3.05;;;16.30;99.90;;;;;;5017788;28;20052;-54
2023/07/17 05:07:33;;;;;;;;;;;16.40;99.90;;;;;;5019649;28;20495;-58
2023/07/17 05:09:59;;;;;;;5.15;2.78;;;16.40;99.90;;;;;;5016510;28;19925;-54
2023/07/17 05:12:25;;;;;;;6.65;3.28;;;16.40;99.90;;;;;;5015243;28;20125;-55
2023/07/17 05:14:51;;;;;;;;;;;16.50;99.90;;;;;;5022380;28;20527;-56
2023/07/17 05:17:16;;;;;;;6.95;2.30;;;16.50;99.90;;;;;;5016503;28;19913;-51
2023/07/17 05:19:42;;;;;;;7.32;2.45;;;16.50;99.90;;;;;;5018116;28;20033;-60
2023/07/17 05:22:08;;;;;;;;;;;16.50;99.90;;;;;;5017461;28;20573;-54
2023/07/17 05:24:33;;;;;;;4.82;2.30;;;16.60;99.90;;;;;;5016878;28;19920;-58
2023/07/17 05:26:59;;;;;;;5.32;2.45;;;16.60;99.90;;;;;;5015567;28;20070;-62
2023/07/17 05:29:24;;;;;;;;;;;16.70;99.90;;;;;;5019278;28;20045;-56
2023/07/17 05:31:50;;;;;;;7.25;2.60;;;16.90;99.70;;;;;;5014425;28;19967;-56
2023/07/17 05:34:15;;;;;;;;;;;16.90;99.70;;;;;;5015127;28;20049;-56
2023/07/17 05:36:41;;;;;;;5.70;2.25;;;17.30;99.70;;;;;;5022247;28;19928;-55
2023/07/17 05:39:07;;;;;;;;;;;18.10;96.80;;;;;;5016888;28;20057;-61
2023/07/17 05:41:33;;;;;;;8.35;2.70;;;18.30;96.20;;;;;;5015998;28;20012;-53
2023/07/17 05:43:59;;;;;;;8.38;2.13;;;18.10;96.80;;;;;;5021369;28;20036;-59
2023/07/17 05:46:25;;;;;;;3.33;2.00;;;17.80;97.20;;;;;;5018830;28;20092;-59
2023/07/17 05:48:50;;;;;;;2.97;1.95;;;17.50;97.70;;;;;;5020089;28;20374;-59
2023/07/17 05:51:17;;;;;;;;;;;17.50;98.10;;;;;;5019695;28;20041;-59
2023/07/17 05:53:42;;;;;;;6.28;1.90;;;17.50;98.10;;;;;;5011654;28;20567;-56
2023/07/17 05:56:08;;;;;;;;;;;17.50;97.90;;;;;;5015798;28;20493;-58
2023/07/17 05:58:34;;;;;;;4.95;2.67;;;17.60;97.50;;;;;;5016389;28;19928;-57
2023/07/17 06:01:00;;;;;;;;;;;17.50;97.80;;;;;;5016948;28;20560;-58
2023/07/17 06:03:25;;;;;;;3.83;2.20;;;17.40;97.80;;;;;;5015031;28;20015;-55
2023/07/17 06:05:51;;;;;;;;;;;17.40;98.60;;;;;;5020769;28;20049;-53
2023/07/17 06:08:17;;;;;;;4.15;2.05;;;17.50;97.80;;;;;;5018258;28;19920;-54
2023/07/17 06:10:42;;;;;;;4.60;2.20;;;17.60;97.80;;;;;;5009390;28;20639;-53
2023/07/17 06:13:09;;;;;;;8.88;2.42;;;17.50;97.50;;;;;;5019535;28;20051;-54
2023/07/17 06:15:34;;;;;;;3.40;1.92;;;17.60;98.20;;;;;;5016824;28;20200;-54
2023/07/17 06:18:00;;;;;;;;;;;17.70;98.00;;;;;;5016312;28;20553;-56
2023/07/17 06:20:26;;;;;;;5.22;2.10;;;17.70;98.00;;;;;;5016720;28;19917;-54
2023/07/17 06:22:51;;;;;;;10.45;2.78;;;17.80;97.30;;;;;;5020830;28;20703;-57
2023/07/17 06:25:17;;;;;;;3.90;2.17;;;17.90;97.90;;;;;;5013331;28;20069;-52
2023/07/17 06:27:43;;;;;;;5.43;2.25;;;18.00;97.30;;;;;;5014339;28;20048;-59
2023/07/17 06:30:10;;;;;;;;;;;18.00;97.50;;;;;;5018163;28;20037;-54
2023/07/17 06:32:36;;;;;;;4.07;2.00;;;18.00;97.60;;;;;;5015839;28;20396;-54
2023/07/17 06:35:01;;;;;;;;;;;18.00;97.20;;;;;;5020874;28;20041;-59
2023/07/17 06:37:27;;;;;;;4.53;2.38;;;17.90;97.40;;;;;;5013575;28;19983;-56
2023/07/17 06:39:52;;;;;;;;;;;18.00;97.60;;;;;;5015639;28;20063;-55
2023/07/17 06:42:18;;;;;;;4.63;1.95;;;18.20;97.30;;;;;;5014345;28;19979;-56
2023/07/17 06:44:44;;;;;;;5.45;2.38;;;18.50;96.70;;;;;;5018684;28;20073;-55
2023/07/17 06:47:09;;;;;;;8.63;2.10;;;18.70;96.00;;;;;;5014964;28;20511;-55
2023/07/17 06:49:36;;;;;;;6.03;2.08;;;19.00;96.40;;;;;;5016625;28;20083;-56
2023/07/17 06:52:01;;;;;;;4.18;2.22;;;19.80;94.40;;;;;;5021043;28;20053;-57
2023/07/17 06:54:27;;;;;;;5.53;2.00;;;20.00;92.80;;;;;;5018555;28;20520;-51
2023/07/17 06:56:53;;;;;;;5.57;1.85;;;20.00;93.10;;;;;;5012750;28;20052;-52
2023/07/17 06:59:18;;;;;;;4.82;1.95;;;19.80;93.80;;;;;;5016872;28;20041;-53
2023/07/17 07:01:44;;;;;;;4.35;1.77;;;19.60;94.80;;;;;;5011328;28;20038;-53
2023/07/17 07:04:09;;;;;;;3.70;1.90;;;19.50;94.60;;;;;;5016310;28;20034;-53
2023/07/17 07:06:35;;;;;;;6.20;2.00;;;19.60;93.90;;;;;;5012863;28;20038;-56
2023/07/17 07:09:01;;;;;;;3.38;1.92;;;19.50;94.70;;;;;;5021787;28;20116;-53
2023/07/17 07:11:26;;;;;;;3.13;1.67;;;19.30;94.30;;;;;;5020880;28;20101;-53
2023/07/17 07:13:52;;;;;;;3.80;1.58;;;19.10;94.80;;;;;;5009992;28;20047;-60
2023/07/17 07:16:18;;;;;;;3.67;1.50;;;18.90;95.10;;;;;;5016628;28;20043;-53
2023/07/17 07:18:44;;;;;;;7.10;2.13;;;18.90;95.60;;;;;;5020168;28;20105;-53
2023/07/17 07:21:10;;;;;;;3.78;1.83;;;19.10;94.80;;;;;;5021894;28;20596;-56
2023/07/17 07:23:35;;;;;;;4.78;1.70;;;19.40;94.10;;;;;;5013905;28;20091;-52
2023/07/17 07:26:01;;;;;;;3.45;1.58;;;19.90;92.70;;;;;;5015858;28;20040;-54
2023/07/17 07:28:27;;;;;;;3.15;1.75;;;20.40;92.70;;;;;;5018048;28;20044;-56
2023/07/17 07:30:57;;;;;;;7.80;1.90;;;20.70;92.30;;;;;;5017749;28;20149;-56
2023/07/17 07:33:24;;;;;;;3.35;1.80;;;21.20;91.20;;;;;;5020277;28;20060;-57
2023/07/17 07:35:49;;;;;;;3.70;1.75;;;21.90;91.10;;;;;;5018437;28;20041;-54
2023/07/17 07:38:15;;;;;;;4.40;1.48;;;22.70;90.30;;;;;;5020572;28;20834;-54
2023/07/17 07:40:40;;;;;;;3.60;1.77;;;23.50;86.10;;;;;;5021777;28;20064;-57
2023/07/17 07:43:06;;;;;;;2.70;1.50;;;24.10;87.70;;;;;;5019546;28;20040;-57
2023/07/17 07:45:32;;;;;;;4.80;1.80;;;24.90;84.10;;;;;;5013232;28;20038;-58
2023/07/17 07:47:58;;;;;;;4.45;1.95;;;24.80;82.50;;;;;;5016643;28;20518;-54
2023/07/17 07:50:24;;;;;;;3.22;1.70;;;23.70;82.80;;;;;;5024666;28;20091;-57
2023/07/17 07:52:49;;;;;;;5.68;2.17;;;23.70;86.10;;;;;;5021394;28;20041;-50
2023/07/17 07:55:15;;;;;;;3.50;1.90;;;24.20;81.10;;;;;;5011288;28;20045;-57
2023/07/17 07:57:41;;;;;;;2.85;1.75;;;24.90;77.30;;;;;;5012872;28;20586;-57
2023/07/17 08:00:08;;;;;;;4.07;2.10;;;25.20;74.60;;;;;;5025967;28;20442;-59
2023/07/17 08:02:33;;;;;;;3.88;1.75;;;25.70;74.00;;;;;;5021966;28;20136;-55
2023/07/17 08:04:59;;;;;;;3.53;1.70;;;25.10;75.50;;;;;;5016145;28;20148;-51
2023/07/17 08:07:24;;;;;;;4.43;2.10;;;24.40;77.80;;;;;;5018543;28;20045;-56
2023/07/17 08:09:53;;;;;;;3.60;1.95;;;24.00;80.80;;;;;;5020094;28;20041;-55
2023/07/17 08:12:19;;;;;;;4.07;1.80;;;24.40;78.40;;;;;;4988172;28;20056;-56
2023/07/17 08:14:45;;;;;;;3.70;1.90;;;25.20;75.90;;;;;;5022782;28;20490;-58
2023/07/17 08:17:11;;;;;;;3.90;2.08;;;25.70;73.10;;;;;;4985442;28;20044;-55
2023/07/17 08:19:36;;;;;;;7.18;2.55;;;26.10;71.10;;;;;;5021463;28;20041;-52
2023/07/17 08:22:02;;;;;;;3.63;1.88;;;26.10;71.90;;;;;;5017103;28;20042;-53
2023/07/17 08:24:28;;;;;;;2.92;1.80;;;25.60;75.30;;;;;;5018076;28;20044;-59
2023/07/17 08:26:55;;;;;;;2.92;1.80;;;25.10;72.90;;;;;;5016549;28;20041;-60
2023/07/17 08:29:21;;;;;;;6.55;2.15;;;24.90;75.00;;;;;;5013936;28;20045;-58
2023/07/17 08:31:46;;;;;;;7.90;2.40;;;24.70;75.10;;;;;;5022493;28;20038;-56
2023/07/17 08:34:12;;;;;;;6.72;2.80;;;24.20;76.50;;;;;;5022413;28;20518;-57
2023/07/17 08:36:38;;;;;;;5.20;1.95;;;23.50;78.20;;;;;;5021900;28;20075;-58
2023/07/17 08:39:05;;;;;;;4.70;2.00;;;23.20;78.50;;;;;;5011912;28;20049;-57
2023/07/17 08:41:30;;;;;;;4.88;2.10;;;23.00;78.30;;;;;;5016457;28;20498;-59
2023/07/17 08:43:58;;;;;;;4.55;1.90;;;22.90;79.30;;;;;;5022289;28;20045;-55
2023/07/17 08:46:24;;;;;;;7.80;1.60;;;22.80;79.10;;;;;;5023590;28;20088;-57
2023/07/17 08:48:52;;;;;;;2.20;1.70;;;23.00;79.30;;;;;;5025435;28;20101;-61
2023/07/17 08:51:21;;;;;;;4.68;1.90;;;22.90;80.00;;;;;;5021932;28;20038;-62
2023/07/17 08:53:48;;;;;;;4.50;1.90;;;22.80;81.20;;;;;;5025269;28;20049;-55
2023/07/17 08:56:14;;;;;;;7.25;1.95;;;22.50;80.90;;;;;;5023606;28;20041;-58
2023/07/17 08:58:40;;;;;;;4.70;1.75;;;22.90;78.90;;;;;;5021393;28;20106;-56
2023/07/17 09:01:07;;;;;;;5.00;2.10;;;23.00;79.00;;;;;;5018008;28;20053;-61
2023/07/17 09:03:36;;;;;;;4.55;2.08;;;23.30;78.10;;;;;;5020176;28;20061;-61
2023/07/17 09:06:03;;;;;;;4.13;1.92;;;23.20;77.70;;;;;;5018042;28;20068;-61
2023/07/17 09:08:29;;;;;;;6.18;2.17;;;22.90;79.00;;;;;;5018397;28;20403;-53
2023/07/17 09:11:01;;;;;;;7.18;2.38;;;22.10;79.80;;;;;;5018147;28;20052;-58
2023/07/17 09:13:49;;;;;;;4.15;1.98;;;21.80;82.00;;;;;;5022998;28;20110;-56
2023/07/17 09:16:18;;;;;;;6.18;2.22;;;21.60;84.60;;;;;;5012506;28;20056;-56
2023/07/17 09:18:47;;;;;;;8.38;2.28;;;21.50;82.70;;;;;;5020496;28;20094;-55
2023/07/17 09:21:14;;;;;;;5.05;1.83;;;21.20;84.00;;;;;;5023028;28;20117;-55
2023/07/17 09:23:44;;;;;;;4.93;2.00;;;21.00;84.70;;;;;;5016488;28;20044;-62
2023/07/17 09:26:11;;;;;;;7.25;2.42;;;21.00;85.50;;;;;;5023320;28;20045;-54
2023/07/17 09:28:37;;;;;;;7.97;1.95;;;21.10;86.50;;;;;;5015352;28;20044;-57
2023/07/17 09:31:03;;;;;;;4.35;1.80;;;21.30;84.60;;;;;;5020849;28;20175;-58
2023/07/17 09:33:35;;;;;;;8.75;2.40;;;21.40;84.30;;;;;;5014764;28;20505;-56
2023/07/17 09:36:00;;;;;;;6.07;2.25;;;21.40;83.60;;;;;;5017464;28;20064;-55
2023/07/17 09:38:26;;;;;;;5.93;2.13;;;21.40;84.60;;;;;;5017798;28;20049;-57
2023/07/17 09:40:52;;;;;;;5.20;2.28;;;21.30;82.80;;;;;;5019752;28;20033;-55
2023/07/17 09:43:30;;;;;;;7.05;1.73;;;21.10;83.20;;;;;;5017601;28;20486;-60
2023/07/17 09:46:00;;;;;;;5.93;2.50;;;21.00;84.10;;;;;;5017844;28;20049;-62
2023/07/17 09:48:27;;;;;;;5.05;2.05;;;20.90;82.60;;;;;;5012544;28;20485;-60
2023/07/17 09:50:57;;;;;;;7.57;2.13;;;21.00;85.40;;;;;;5018724;28;20067;-59
2023/07/17 09:53:24;;;;;;;5.07;2.35;;;21.00;83.10;;;;;;5013938;28;20194;-58
2023/07/17 09:55:51;;;;;;;4.65;1.95;;;20.80;84.40;;;;;;5019598;28;20402;-56
2023/07/17 09:58:18;;;;;;;5.70;1.88;;;20.80;85.00;;;;;;5017738;28;20057;-52
2023/07/17 10:00:47;;;;;;;3.45;1.73;;;20.60;84.30;;;;;;5014450;28;20037;-57
2023/07/17 10:03:17;;;;;;;4.07;1.80;;;20.70;84.70;;;;;;5014424;28;20042;-58
2023/07/17 10:05:43;;;;;;;3.97;1.92;;;20.80;84.50;;;;;;5010486;28;20107;-57
2023/07/17 10:08:10;;;;;;;2.72;1.73;;;20.80;85.00;;;;;;5020126;28;20041;-61
2023/07/17 10:10:37;;;;;;;3.67;1.98;;;20.70;85.50;;;;;;5023391;28;20045;-56
2023/07/17 10:13:04;;;;;;;4.97;2.50;;;20.90;84.60;;;;;;5014148;28;20064;-64
2023/07/17 10:15:31;;;;;;;7.30;1.65;;;20.80;83.60;;;;;;5016860;28;20045;-58
2023/07/17 10:17:57;;;;;;;3.13;1.60;;;21.00;84.00;;;;;;5015139;28;20079;-59
2023/07/17 10:20:24;;;;;;;5.85;1.90;;;21.00;81.70;;;;;;5007067;28;20041;-59
2023/07/17 10:22:50;;;;;;;4.32;1.50;;;21.00;83.30;;;;;;5018847;28;20041;-57
2023/07/17 10:25:18;;;;;;;5.50;1.63;;;21.20;83.60;;;;;;5020323;28;20037;-62
2023/07/17 10:27:51;;;;;;;3.72;1.80;;;21.10;83.10;;;;;;5014195;28;20124;-60
2023/07/17 10:30:37;;;;;;;3.53;1.95;;;20.90;82.80;;;;;;5019674;28;20075;-57
2023/07/17 10:33:16;;;;;;;3.65;1.58;;;20.80;84.30;;;;;;5012648;28;20098;-57
2023/07/17 10:35:57;;;;;;;4.97;1.63;;;20.70;85.40;;;;;;5016094;28;20239;-58
2023/07/17 10:38:27;;;;;;;3.05;1.90;;;20.90;81.80;;;;;;5016885;28;20108;-59
2023/07/17 10:41:02;;;;;;;6.72;1.92;;;20.90;81.80;;;;;;5021650;28;20041;-58
2023/07/17 10:43:28;;;;;;;3.17;1.70;;;20.90;80.10;;;;;;5010813;28;20044;-56
2023/07/17 10:45:53;;;;;;;5.85;2.50;;;20.80;80.40;;;;;;5017218;28;20045;-55
2023/07/17 10:48:23;;;;;;;4.57;2.17;;;20.80;82.70;;;;;;5009644;28;20033;-59
2023/07/17 10:50:53;;;;;;;5.28;2.00;;;20.70;81.90;;;;;;5022132;28;20033;-57
2023/07/17 10:53:20;;;;;;;7.65;2.20;;;20.60;82.80;;;;;;5021973;28;20037;-60
2023/07/17 10:55:46;;;;;;;6.32;2.22;;;20.70;82.00;;;;;;5019291;28;20144;-60
2023/07/17 10:58:13;;;;;;;3.30;1.90;;;20.80;81.00;;;;;;5013441;28;20117;-55
2023/07/17 11:00:43;;;;;;;4.75;2.55;;;20.70;82.00;;;;;;5010706;28;20787;-56
2023/07/17 11:03:15;;;;;;;5.10;2.35;;;20.70;82.20;;;;;;5016307;28;20084;-55
2023/07/17 11:05:42;;;;;;;4.63;1.98;;;20.80;83.20;;;;;;5014668;28;20562;-56
2023/07/17 11:08:09;;;;;;;4.43;2.53;;;20.80;83.60;;;;;;5018978;28;20088;-57
2023/07/17 11:10:36;;;;;;;4.60;2.53;;;20.90;83.60;;;;;;5018768;28;20132;-60
2023/07/17 11:13:03;;;;;;;5.13;2.10;;;20.90;84.30;;;;;;5018085;28;20087;-60
2023/07/17 11:15:33;;;;;;;7.28;2.65;;;20.90;84.20;;;;;;5019801;28;20456;-58
2023/07/17 11:18:00;;;;;;;5.82;2.42;;;20.80;83.10;;;;;;5022328;28;20073;-57
2023/07/17 11:20:26;;;;;;;5.72;2.55;;;20.70;84.90;;;;;;5022246;28;20401;-57
2023/07/17 11:22:52;;;;;;;4.07;1.92;;;20.80;84.90;;;;;;5022679;28;20047;-53
2023/07/17 11:25:19;;;;;;;10.30;4.05;;;20.90;84.50;;;;;;5016663;28;20041;-56
2023/07/17 11:27:46;;;;;;;7.75;2.58;;;20.80;84.20;;;;;;5014322;28;20052;-53
2023/07/17 11:30:16;;;;;;;5.28;2.38;;;20.70;84.80;;;;;;5017251;28;20033;-50
2023/07/17 11:32:43;;;;;;;6.45;2.70;;;20.40;84.20;;;;;;5020234;28;20512;-57
2023/07/17 11:35:08;;;;;;;5.53;2.38;;;20.40;84.80;;;;;;5014576;28;20064;-53
2023/07/17 11:37:38;;;;;;;5.38;2.65;;;20.60;85.30;;;;;;5017145;28;20477;-59
2023/07/17 11:40:08;;;;;;;4.68;2.38;;;20.90;83.40;;;;;;5015794;28;20046;-57
2023/07/17 11:42:53;;;;;;;4.95;2.70;;;21.10;80.70;;;;;;5011660;28;20070;-57
2023/07/17 11:45:26;;;;;;;7.70;2.50;;;21.00;81.20;;;;;;5016686;28;20047;-54
2023/07/17 11:47:53;;;;;;;5.53;2.38;;;20.90;84.00;;;;;;5009688;28;20054;-58
2023/07/17 11:50:20;;;;;;;5.40;2.10;;;20.80;82.50;;;;;;5021539;28;20125;-58
2023/07/17 11:52:46;;;;;;;4.55;2.33;;;21.10;85.70;;;;;;5021831;28;20124;-58
2023/07/17 11:55:12;;;;;;;5.43;2.47;;;21.30;76.70;;;;;;5019232;28;20111;-51
2023/07/17 11:57:38;;;;;;;6.18;2.40;;;21.10;76.60;;;;;;5018050;28;20041;-61
2023/07/17 12:00:04;;;;;;;6.05;2.47;;;21.40;80.70;;;;;;5021864;28;20038;-58
2023/07/17 12:02:30;;;;;;;4.95;2.28;;;21.50;79.80;;;;;;5019398;28;20069;-55
2023/07/17 12:05:00;;;;;;;7.63;2.53;;;21.50;76.70;;;;;;5018986;28;20064;-59
2023/07/17 12:07:26;;;;;;;4.93;2.20;;;21.60;77.40;;;;;;5019730;28;20049;-56
2023/07/17 12:09:52;;;;;;;6.35;2.30;;;21.60;77.30;;;;;;5020724;28;20052;-58
2023/07/17 12:12:17;;;;;;;6.82;2.38;;;21.50;77.40;;;;;;5016239;28;20034;-58
2023/07/17 12:14:43;;;;;;;3.58;2.17;;;21.50;77.70;;;;;;5023166;28;20041;-58
2023/07/17 12:17:09;;;;;;;4.38;2.45;;;21.50;78.00;;;;;;5023580;28;20053;-55
2023/07/17 12:19:34;;;;;;;7.63;2.38;;;21.40;77.20;;;;;;5013962;28;20497;-56
2023/07/17 12:22:00;;;;;;;4.90;1.98;;;21.60;77.70;;;;;;5025399;28;20037;-63
2023/07/17 12:24:26;;;;;;;3.88;2.45;;;21.60;78.70;;;;;;5025021;28;20092;-51
2023/07/17 12:26:52;;;;;;;7.80;2.45;;;21.70;77.00;;;;;;5018018;28;20037;-55
2023/07/17 12:29:17;;;;;;;5.82;1.85;;;21.70;77.80;;;;;;5018514;28;20043;-53
2023/07/17 12:31:43;;;;;;;3.67;1.90;;;21.70;77.10;;;;;;5020455;28;20153;-54
2023/07/17 12:34:09;;;;;;;5.88;1.92;;;21.80;78.20;;;;;;5005766;28;20042;-59
2023/07/17 12:36:35;;;;;;;3.88;1.90;;;21.90;76.40;;;;;;5021913;28;20125;-55
2023/07/17 12:39:14;;;;;;;3.97;2.05;;;21.90;74.70;;;;;;5017145;28;20056;-56
2023/07/17 12:41:41;;;;;;;4.82;1.83;;;22.00;76.00;;;;;;5014189;28;20041;-52
2023/07/17 12:44:08;;;;;;;4.60;1.75;;;22.10;77.00;;;;;;5024686;28;20091;-53
2023/07/17 12:46:34;;;;;;;7.70;2.25;;;21.90;74.50;;;;;;5024505;28;20046;-53
2023/07/17 12:49:00;;;;;;;2.22;1.40;;;21.50;75.00;;;;;;5014295;28;20380;-57
2023/07/17 12:51:25;;;;;;;4.85;1.92;;;21.40;77.50;;;;;;5024907;28;20046;-57
2023/07/17 12:53:51;;;;;;;3.20;2.10;;;21.30;76.50;;;;;;5017260;28;20121;-57
2023/07/17 12:56:17;;;;;;;4.97;2.00;;;21.20;80.00;;;;;;5017625;28;20060;-56